Time;durP1;ratioP1;P1;durP2;ratioP2;P2;SDS_P1;SDS_P2;PMS_P1;PMS_P2;Temp;Humidity;BMP_temperature;BMP_pressure;BME280_temperature;BME280_humidity;BME280_pressure;Samples;Min_cycle;Max_cycle;Signal;HPM_P1;HPM_P2
2021/06/01 00:01:12;;;;;;;3.23;1.87;;;;;;;10.87;95.41;99419.66;10497116;28;20218;-75
2021/06/01 00:06:33;;;;;;;2.00;1.70;;;;;;;10.66;99.43;99418.84;10495835;28;20175;-74
2021/06/01 00:11:52;;;;;;;2.70;2.13;;;;;;;10.44;100.00;99426.28;10497786;28;20206;-74
2021/06/01 00:17:11;;;;;;;4.93;2.17;;;;;;;10.36;100.00;99432.94;10497000;28;20225;-74
2021/06/01 00:22:29;;;;;;;1.97;1.87;;;;;;;10.23;100.00;99422.69;10495280;28;20758;-75
2021/06/01 00:27:48;;;;;;;3.40;2.30;;;;;;;10.23;100.00;99421.91;10497433;28;20539;-75
2021/06/01 00:33:11;;;;;;;2.10;1.77;;;;;;;10.20;100.00;99430.91;10497014;28;20384;-73
2021/06/01 00:38:30;;;;;;;4.57;2.23;;;;;;;10.11;100.00;99427.75;10495195;28;20186;-74
2021/06/01 00:43:49;;;;;;;2.00;1.40;;;;;;;10.05;100.00;99426.56;10496430;28;20174;-73
2021/06/01 00:49:08;;;;;;;2.50;2.30;;;;;;;10.18;100.00;99422.28;10497165;28;20178;-74
2021/06/01 00:54:27;;;;;;;4.77;1.83;;;;;;;9.98;100.00;99427.31;10494476;28;20289;-74
2021/06/01 00:59:46;;;;;;;3.47;2.27;;;;;;;9.79;100.00;99426.81;10496895;28;20539;-73
2021/06/01 01:05:12;;;;;;;2.23;1.83;;;;;;;9.70;100.00;99431.84;10495709;28;20195;-75
2021/06/01 01:10:36;;;;;;;2.40;2.20;;;;;;;9.79;100.00;99435.03;10496800;28;20187;-73
2021/06/01 01:15:55;;;;;;;3.73;2.03;;;;;;;9.49;100.00;99431.75;10496034;28;20226;-73
2021/06/01 01:21:17;;;;;;;1.77;1.63;;;;;;;9.22;100.00;99422.16;10494265;28;20171;-73
2021/06/01 01:26:59;;;;;;;3.87;1.40;;;;;;;9.13;100.00;99432.66;10496266;28;20207;-74
2021/06/01 01:32:37;;;;;;;1.87;1.70;;;;;;;8.98;100.00;99431.00;10496002;28;20243;-75
2021/06/01 01:38:01;;;;;;;6.50;2.87;;;;;;;8.96;100.00;99436.09;10495051;28;20187;-73
2021/06/01 01:43:24;;;;;;;6.37;2.17;;;;;;;8.85;100.00;99424.22;10503151;28;20191;-74
2021/06/01 01:54:23;;;;;;;2.13;1.93;;;;;;;8.96;100.00;99422.38;10501184;28;20202;-74
2021/06/01 01:59:43;;;;;;;3.10;2.50;;;;;;;9.01;100.00;99429.44;10503073;28;20218;-74
2021/06/01 02:05:05;;;;;;;3.97;2.67;;;;;;;8.71;100.00;99420.56;10501649;28;20278;-74
2021/06/01 02:10:24;;;;;;;5.07;2.13;;;;;;;8.66;100.00;99426.41;10502527;28;20568;-72
2021/06/01 02:15:43;;;;;;;2.23;2.03;;;;;;;8.68;100.00;99420.53;10500466;28;20214;-74
2021/06/01 02:21:18;;;;;;;2.00;1.77;;;;;;;8.72;100.00;99422.16;10500744;28;20167;-73
2021/06/01 02:27:10;;;;;;;5.03;3.10;;;;;;;8.63;100.00;99420.91;10502043;28;20186;-72
2021/06/01 02:32:49;;;;;;;1.90;1.80;;;;;;;8.65;100.00;99419.34;10506170;28;20724;-72
2021/06/01 02:38:10;;;;;;;1.60;1.10;;;;;;;8.53;100.00;99410.63;10500119;28;20183;-73
2021/06/01 02:43:30;;;;;;;2.07;1.87;;;;;;;8.27;100.00;99417.03;10500403;28;20191;-74
2021/06/01 02:48:49;;;;;;;3.50;2.23;;;;;;;8.12;100.00;99417.22;10501043;28;20186;-73
2021/06/01 02:54:09;;;;;;;2.57;2.37;;;;;;;7.92;100.00;99418.53;10497718;28;20298;-73
2021/06/01 02:59:30;;;;;;;2.77;1.33;;;;;;;7.84;100.00;99418.84;10500590;28;20206;-73
2021/06/01 03:04:50;;;;;;;3.20;1.50;;;;;;;7.72;100.00;99416.31;10499279;28;20171;-72
2021/06/01 03:10:12;;;;;;;2.13;1.90;;;;;;;7.62;100.00;99419.72;10499171;28;20183;-73
2021/06/01 03:15:31;;;;;;;2.17;1.40;;;;;;;7.66;100.00;99415.88;10499267;28;20210;-72
2021/06/01 03:20:51;;;;;;;3.53;1.63;;;;;;;7.57;100.00;99411.81;10498398;28;20552;-73
2021/06/01 03:26:10;;;;;;;2.00;1.90;;;;;;;7.51;100.00;99416.84;10499414;28;20246;-73
2021/06/01 03:31:31;;;;;;;9.23;2.83;;;;;;;7.58;100.00;99414.22;10498645;28;20301;-73
2021/06/01 03:36:51;;;;;;;2.53;2.33;;;;;;;7.65;100.00;99411.56;10497950;28;20190;-74
2021/06/01 03:42:13;;;;;;;6.93;2.30;;;;;;;7.57;100.00;99414.56;10497941;28;20186;-72
2021/06/01 03:47:33;;;;;;;2.30;2.10;;;;;;;7.56;100.00;99416.53;10498925;28;20183;-75
2021/06/01 03:52:52;;;;;;;2.00;1.80;;;;;;;7.64;100.00;99425.59;10496905;28;20202;-76
2021/06/01 03:58:11;;;;;;;4.73;2.00;;;;;;;7.76;100.00;99437.13;10498537;28;20262;-75
2021/06/01 04:03:38;;;;;;;2.40;1.57;;;;;;;7.85;100.00;99429.41;10497643;28;20210;-74
2021/06/01 04:08:56;;;;;;;5.17;2.70;;;;;;;7.99;100.00;99424.13;10496892;28;20633;-72
2021/06/01 04:14:18;;;;;;;1.30;1.20;;;;;;;8.20;100.00;99422.41;10497401;28;20210;-72
2021/06/01 04:19:37;;;;;;;3.43;2.83;;;;;;;8.37;100.00;99424.56;10497784;28;20186;-73
2021/06/01 04:24:56;;;;;;;2.67;1.90;;;;;;;8.44;100.00;99421.88;10495843;28;20167;-73
2021/06/01 04:30:16;;;;;;;2.47;2.27;;;;;;;8.42;100.00;99418.75;10497513;28;20535;-73
2021/06/01 04:35:35;;;;;;;2.87;2.67;;;;;;;8.60;100.00;99416.16;10494245;28;20223;-74
2021/06/01 04:40:54;;;;;;;3.80;2.30;;;;;;;8.78;100.00;99412.41;10497300;28;20621;-72
2021/06/01 04:46:13;;;;;;;4.33;3.30;;;;;;;9.03;100.00;99416.13;10497179;28;20174;-73
2021/06/01 04:51:32;;;;;;;2.20;2.00;;;;;;;9.35;100.00;99425.38;10495600;28;20182;-75
2021/06/01 04:56:51;;;;;;;3.23;2.17;;;;;;;9.63;100.00;99418.09;10496056;28;20555;-75
2021/06/01 05:02:10;;;;;;;2.83;2.63;;;;;;;10.01;100.00;99412.03;10494810;28;20187;-73
2021/06/01 05:07:29;;;;;;;4.50;2.50;;;;;;;10.24;100.00;99407.75;10494854;28;20262;-73
2021/06/01 05:12:48;;;;;;;2.53;2.30;;;;;;;10.52;100.00;99410.59;10495438;28;20214;-76
2021/06/01 05:18:07;;;;;;;1.83;1.63;;;;;;;10.92;100.00;99408.25;10502790;28;20170;-75
2021/06/01 05:23:26;;;;;;;5.50;3.60;;;;;;;11.43;100.00;99403.06;10502177;28;20170;-75
2021/06/01 05:28:45;;;;;;;5.43;3.43;;;;;;;11.87;100.00;99409.66;10502845;28;20180;-76
2021/06/01 05:34:06;;;;;;;3.00;2.70;;;;;;;12.34;100.00;99409.03;10502514;28;20230;-74
2021/06/01 05:39:25;;;;;;;3.80;2.87;;;;;;;12.82;100.00;99407.94;10502425;28;20257;-73
2021/06/01 05:44:47;;;;;;;10.00;2.90;;;;;;;13.21;100.00;99405.66;10503601;28;20206;-74
2021/06/01 05:50:06;;;;;;;3.23;2.70;;;;;;;13.57;100.00;99393.84;10500207;28;20182;-74
2021/06/01 05:55:26;;;;;;;5.07;3.50;;;;;;;13.96;100.00;99400.50;10502359;28;20630;-76
2021/06/01 06:00:45;;;;;;;5.27;2.93;;;;;;;14.28;98.42;99391.81;10502114;28;20257;-76
2021/06/01 06:06:11;;;;;;;3.53;2.20;;;;;;;14.72;94.91;99392.34;10500507;28;20175;-75
2021/06/01 06:11:30;;;;;;;4.50;2.63;;;;;;;15.16;90.46;99390.81;10502482;28;20277;-76
2021/06/01 06:16:56;;;;;;;3.13;2.93;;;;;;;15.39;88.12;99390.81;10500947;28;20175;-74
2021/06/01 06:22:15;;;;;;;3.17;2.50;;;;;;;15.85;84.01;99384.41;10500994;28;20171;-76
2021/06/01 06:27:35;;;;;;;4.70;2.57;;;;;;;16.17;69.54;99390.84;10501639;28;20641;-77
2021/06/01 06:32:54;;;;;;;4.73;4.30;;;;;;;16.47;68.30;99390.63;10500734;28;20227;-74
2021/06/01 06:38:13;;;;;;;7.93;3.60;;;;;;;16.95;65.20;99389.47;10499316;28;20178;-75
2021/06/01 06:43:35;;;;;;;3.90;3.33;;;;;;;17.24;64.83;99392.34;10501272;28;20167;-74
2021/06/01 06:48:57;;;;;;;3.07;2.77;;;;;;;17.62;62.58;99396.88;10500159;28;20178;-75
2021/06/01 06:54:16;;;;;;;3.33;3.03;;;;;;;18.17;61.46;99391.72;10498156;28;20218;-73
2021/06/01 06:59:35;;;;;;;3.70;2.97;;;;;;;18.33;61.26;99388.91;10500699;28;20183;-74
2021/06/01 07:04:55;;;;;;;3.53;2.30;;;;;;;18.86;58.74;99391.59;10500405;28;20170;-76
2021/06/01 07:10:15;;;;;;;2.87;2.63;;;;;;;19.27;53.40;99394.25;10500253;28;20167;-74
2021/06/01 07:15:44;;;;;;;3.73;3.30;;;;;;;19.82;52.06;99390.72;10499366;28;20206;-73
2021/06/01 07:21:05;;;;;;;3.17;2.77;;;;;;;20.25;52.40;99392.31;10497733;28;20583;-74
2021/06/01 07:26:25;;;;;;;4.87;2.73;;;;;;;20.85;48.21;99385.19;10499748;28;20171;-74
2021/06/01 07:31:44;;;;;;;3.10;2.50;;;;;;;21.35;47.67;99381.91;10499028;28;20218;-74
2021/06/01 07:37:04;;;;;;;3.10;2.80;;;;;;;21.74;45.45;99385.38;10497280;28;20178;-75
2021/06/01 07:42:23;;;;;;;2.90;2.57;;;;;;;22.18;45.48;99383.81;10497810;28;20182;-75
2021/06/01 07:47:43;;;;;;;2.80;2.60;;;;;;;22.42;42.55;99378.31;10498731;28;20178;-75
2021/06/01 07:53:02;;;;;;;2.83;2.63;;;;;;;22.74;43.50;99370.72;10496810;28;20202;-75
2021/06/01 07:58:21;;;;;;;3.60;3.30;;;;;;;22.91;43.57;99373.94;10498393;28;20178;-76
2021/06/01 08:03:40;;;;;;;2.97;2.77;;;;;;;23.45;42.25;99363.19;10498163;28;20171;-74
2021/06/01 08:09:00;;;;;;;2.50;2.20;;;;;;;23.96;41.82;99358.91;10496982;28;20163;-75
2021/06/01 08:14:18;;;;;;;2.80;2.50;;;;;;;24.42;41.44;99357.16;10497596;28;20214;-73
2021/06/01 08:19:41;;;;;;;2.57;2.37;;;;;;;24.75;38.89;99354.91;10496859;28;20174;-74
2021/06/01 08:25:00;;;;;;;2.70;2.50;;;;;;;24.82;36.33;99348.88;10497419;28;20668;-74
2021/06/01 08:30:20;;;;;;;3.53;3.23;;;;;;;24.45;37.58;99344.97;10497587;28;20755;-75
2021/06/01 08:35:39;;;;;;;4.93;2.80;;;;;;;25.18;37.90;99340.75;10495391;28;20226;-76
2021/06/01 08:40:58;;;;;;;2.73;2.50;;;;;;;25.18;34.18;99330.28;10497326;28;20174;-77
2021/06/01 08:46:23;;;;;;;2.70;2.50;;;;;;;24.89;36.81;99331.59;10497284;28;20178;-74
2021/06/01 08:51:43;;;;;;;2.50;2.30;;;;;;;25.92;35.58;99341.47;10501927;28;20626;-74
2021/06/01 08:57:02;;;;;;;2.67;2.33;;;;;;;26.71;33.71;99331.16;10505653;28;20175;-74
2021/06/01 09:02:22;;;;;;;2.70;2.50;;;;;;;27.16;31.91;99333.81;10505229;28;20179;-76
2021/06/01 09:24:27;;;;;;;4.70;2.73;;;;;;;28.16;29.75;99313.13;10502529;28;20182;-76
2021/06/01 09:29:48;;;;;;;2.57;2.30;;;;;;;28.54;28.58;99302.63;10503139;28;20543;-74
2021/06/01 09:35:08;;;;;;;2.40;2.20;;;;;;;27.96;28.84;99302.81;10502034;28;20234;-74
2021/06/01 09:40:27;;;;;;;2.67;2.47;;;;;;;28.52;28.91;99290.28;10503865;28;20182;-77
2021/06/01 09:45:45;;;;;;;2.97;2.77;;;;;;;28.23;28.93;99284.34;10503619;28;20196;-76
2021/06/01 09:51:09;;;;;;;2.50;2.30;;;;;;;28.39;27.98;99282.31;10502196;28;20260;-74
2021/06/01 09:56:31;;;;;;;2.30;2.13;;;;;;;28.85;28.54;99285.34;10502742;28;20210;-74
2021/06/01 10:01:50;;;;;;;2.73;2.40;;;;;;;29.11;27.81;99268.06;10501122;28;20171;-74
2021/06/01 10:07:26;;;;;;;3.07;2.57;;;;;;;28.98;26.18;99262.94;10500131;28;20569;-76
2021/06/01 10:12:51;;;;;;;2.90;2.70;;;;;;;29.27;26.50;99259.47;10500946;28;20206;-75
2021/06/01 10:18:14;;;;;;;6.67;2.20;;;;;;;30.01;26.67;99252.41;10502053;28;20171;-75
2021/06/01 10:23:35;;;;;;;2.70;2.50;;;;;;;30.58;27.13;99238.00;10500973;28;20171;-76
2021/06/01 10:28:56;;;;;;;2.50;2.20;;;;;;;30.18;24.65;99245.31;10501969;28;20167;-75
2021/06/01 10:34:18;;;;;;;4.27;2.37;;;;;;;30.18;24.65;99236.00;10501046;28;20230;-74
2021/06/01 10:50:44;;;;;;;2.63;2.30;;;;;;;30.66;21.80;99222.69;10499181;28;20637;-75
2021/06/01 10:56:04;;;;;;;2.47;1.70;;;;;;;30.69;23.31;99218.81;10500230;28;20289;-76
2021/06/01 11:12:24;;;;;;;2.03;1.80;;;;;;;30.90;24.10;99208.50;10498357;28;20203;-74
2021/06/01 11:17:43;;;;;;;2.07;1.97;;;;;;;30.83;23.09;99203.41;10498377;28;20187;-75
2021/06/01 11:23:21;;;;;;;2.30;2.10;;;;;;;31.69;21.39;99183.69;10498225;28;20266;-74
2021/06/01 11:34:45;;;;;;;2.27;2.07;;;;;;;31.62;21.79;99169.31;10498328;28;20692;-76
2021/06/01 11:40:24;;;;;;;2.40;2.20;;;;;;;31.36;23.58;99171.22;10498916;28;20621;-77
2021/06/01 11:51:49;;;;;;;2.53;2.07;;;;;;;32.66;22.21;99154.09;10492050;28;20187;-75
2021/06/01 11:57:22;;;;;;;2.27;1.90;;;;;;;32.59;21.20;99151.88;10492516;28;20198;-75
2021/06/01 12:02:50;;;;;;;2.97;2.33;;;;;;;32.69;22.14;99143.66;10497585;28;20629;-73
2021/06/01 12:13:54;;;;;;;2.53;2.33;;;;;;;33.44;21.33;99136.88;10496583;28;20572;-74
2021/06/01 12:19:16;;;;;;;2.07;1.97;;;;;;;33.20;22.15;99134.31;10497624;28;20190;-74
2021/06/01 12:24:37;;;;;;;2.20;2.00;;;;;;;32.36;21.58;99129.25;10494944;28;20669;-76
2021/06/01 14:28:03;;;;;;;2.70;1.60;;;;;;;30.11;23.66;99007.50;10501470;28;20622;-75
2021/06/01 16:15:08;;;;;;;1.83;1.73;;;;;;;32.41;20.10;98917.63;10497406;28;20657;-76
2021/06/01 16:32:01;;;;;;;2.53;2.10;;;;;;;30.49;22.99;98909.72;10497362;28;20222;-76
2021/06/01 17:05:41;;;;;;;2.77;2.57;;;;;;;31.09;22.51;98883.22;10495696;28;20178;-74
2021/06/01 17:39:00;;;;;;;3.00;1.60;;;;;;;31.49;21.35;98881.22;10502683;28;20194;-74
2021/06/01 17:44:23;;;;;;;1.63;1.53;;;;;;;29.65;23.16;98887.03;10503887;28;20162;-76
2021/06/01 17:49:47;;;;;;;2.33;2.13;;;;;;;27.94;25.23;98891.69;10502737;28;20214;-75
2021/06/01 17:55:08;;;;;;;1.63;1.53;;;;;;;26.84;26.54;98886.22;10502803;28;20214;-75
2021/06/01 18:00:27;;;;;;;2.33;1.83;;;;;;;26.06;28.10;98878.13;10503214;28;20203;-75
2021/06/01 18:05:49;;;;;;;1.80;1.60;;;;;;;25.62;29.01;98882.78;10501839;28;20553;-74
2021/06/01 19:24:22;;;;;;;1.83;1.73;;;;;;;20.76;47.65;98903.41;10498206;28;20171;-75
2021/06/01 19:52:01;;;;;;;2.40;2.20;;;;;;;19.30;53.10;98924.72;10497671;28;20182;-74
2021/06/01 19:57:22;;;;;;;2.13;1.87;;;;;;;18.98;54.84;98916.78;10497798;28;20571;-73
2021/06/01 20:02:41;;;;;;;4.00;2.10;;;;;;;18.83;55.77;98918.59;10498495;28;20178;-73
2021/06/01 20:08:01;;;;;;;2.50;2.13;;;;;;;18.65;56.34;98924.09;10495504;28;20190;-73
2021/06/01 20:13:22;;;;;;;2.13;1.70;;;;;;;18.43;57.24;98922.59;10497787;28;20208;-74
2021/06/01 20:18:43;;;;;;;2.47;2.13;;;;;;;18.22;58.09;98931.72;10498217;28;20178;-74
2021/06/01 20:24:05;;;;;;;2.17;1.90;;;;;;;18.01;58.62;98926.13;10495551;28;20186;-74
2021/06/01 20:29:30;;;;;;;2.70;2.13;;;;;;;17.65;58.55;98928.59;10496999;28;20175;-73
2021/06/01 20:34:50;;;;;;;3.07;2.27;;;;;;;17.46;58.79;98935.19;10496070;28;20230;-73
2021/06/01 20:40:12;;;;;;;1.73;1.50;;;;;;;17.33;59.32;98937.22;10496656;28;20178;-73
2021/06/01 20:45:34;;;;;;;2.73;2.37;;;;;;;17.26;60.83;98931.09;10497162;28;20174;-74
2021/06/01 20:50:56;;;;;;;2.40;2.07;;;;;;;17.13;61.69;98930.34;10495918;28;20171;-73
2021/06/01 20:56:15;;;;;;;2.60;2.17;;;;;;;17.04;63.05;98928.22;10495720;28;20210;-73
2021/06/01 21:01:35;;;;;;;1.57;1.47;;;;;;;16.90;64.45;98931.44;10496143;28;20179;-73
2021/06/01 21:06:54;;;;;;;3.40;2.40;;;;;;;16.68;65.06;98934.56;10495573;28;20194;-74
2021/06/01 21:12:14;;;;;;;2.10;1.70;;;;;;;16.54;65.91;98932.22;10496665;28;20171;-75
2021/06/01 21:17:39;;;;;;;2.00;1.80;;;;;;;16.48;65.93;98936.72;10496705;28;20540;-73
2021/06/01 21:23:00;;;;;;;5.57;2.87;;;;;;;16.15;67.19;98935.31;10495511;28;20186;-73
2021/06/01 21:28:20;;;;;;;5.33;2.30;;;;;;;15.91;68.40;98934.00;10496506;28;21177;-71
2021/06/01 21:33:44;;;;;;;3.70;2.50;;;;;;;15.72;69.52;98937.69;10496149;28;20702;-73
2021/06/01 21:39:04;;;;;;;2.50;2.13;;;;;;;15.59;68.89;98936.84;10494987;28;20210;-73
2021/06/01 21:44:23;;;;;;;2.73;2.53;;;;;;;15.49;70.83;98949.00;10496443;28;20175;-72
2021/06/01 21:49:46;;;;;;;2.27;1.87;;;;;;;15.47;72.27;98948.66;10495093;28;20174;-72
2021/06/01 21:55:08;;;;;;;2.90;2.20;;;;;;;15.32;73.38;98955.75;10494193;28;20210;-73
2021/06/01 22:00:29;;;;;;;2.10;1.90;;;;;;;15.19;73.92;98951.31;10503099;28;20179;-74
2021/06/01 22:05:49;;;;;;;2.07;1.80;;;;;;;14.88;74.93;98947.31;10500840;28;20190;-74
2021/06/01 22:11:08;;;;;;;2.53;2.03;;;;;;;14.82;73.64;98949.00;10503009;28;20194;-73
2021/06/01 22:16:29;;;;;;;2.93;1.87;;;;;;;14.75;75.75;98957.47;10501196;28;20206;-72
2021/06/01 22:21:50;;;;;;;1.83;1.67;;;;;;;14.81;75.09;98947.47;10500220;28;20183;-73
2021/06/01 22:27:09;;;;;;;5.07;2.70;;;;;;;14.65;77.73;98949.41;10501223;28;20199;-73
2021/06/01 22:32:29;;;;;;;2.90;1.83;;;;;;;14.41;79.55;98965.38;10500678;28;20684;-73
2021/06/01 22:37:49;;;;;;;2.20;2.00;;;;;;;14.34;82.53;98971.03;10499633;28;20187;-73
2021/06/01 22:43:12;;;;;;;2.83;2.07;;;;;;;13.98;85.74;98963.81;10501758;28;20179;-72
2021/06/01 22:48:32;;;;;;;2.73;2.37;;;;;;;13.83;88.61;98956.25;10501531;28;20178;-72
2021/06/01 22:53:52;;;;;;;7.80;2.10;;;;;;;13.75;87.68;98963.09;10499599;28;20210;-73
2021/06/01 22:59:33;;;;;;;4.73;2.73;;;;;;;13.73;88.10;98957.97;10501082;28;20179;-72
2021/06/01 23:04:54;;;;;;;1.97;1.77;;;;;;;13.70;86.63;98956.09;10500741;28;20210;-72
2021/06/01 23:10:14;;;;;;;4.07;2.10;;;;;;;13.70;85.24;98952.50;10499551;28;20171;-72
2021/06/01 23:15:33;;;;;;;4.60;1.90;;;;;;;13.65;88.18;98959.31;10498981;28;20289;-73
2021/06/01 23:20:53;;;;;;;2.43;1.80;;;;;;;13.57;86.46;98968.16;10498828;28;20634;-74
2021/06/01 23:26:13;;;;;;;2.27;2.00;;;;;;;13.56;88.26;98963.84;10499960;28;20179;-74
2021/06/01 23:31:32;;;;;;;2.17;1.97;;;;;;;13.42;89.21;98963.28;10499399;28;20211;-74
2021/06/01 23:37:01;;;;;;;3.27;2.30;;;;;;;13.41;90.68;98975.56;10497611;28;20194;-74
2021/06/01 23:42:21;;;;;;;2.83;2.43;;;;;;;13.29;92.42;98976.16;10499084;28;20535;-75
2021/06/01 23:47:50;;;;;;;3.43;2.43;;;;;;;13.15;93.60;98968.09;10498014;28;20186;-75
2021/06/01 23:53:09;;;;;;;2.40;2.20;;;;;;;13.11;94.60;98970.94;10497432;28;20336;-73
2021/06/01 23:58:28;;;;;;;2.40;2.20;;;;;;;13.07;100.00;98972.19;10498652;28;20202;-73
